Time;durP1;ratioP1;P1;durP2;ratioP2;P2;SDS_P1;SDS_P2;PMS_P1;PMS_P2;Temp;Humidity;BMP_temperature;BMP_pressure;BME280_temperature;BME280_humidity;BME280_pressure;Samples;Min_cycle;Max_cycle;Signal;HPM_P1;HPM_P2
2022/10/08 00:01:04;;;;;;;29.23;19.27;;;;;;;;;;5138015;27;20015;-72
2022/10/08 00:03:51;;;;;;;26.27;18.38;;;;;;;;;;5137803;27;20025;-73
2022/10/08 00:06:37;;;;;;;23.95;16.75;;;;;;;;;;5135596;27;20023;-72
2022/10/08 00:09:22;;;;;;;27.00;18.63;;;;;;;;;;5137659;27;20015;-72
2022/10/08 00:12:08;;;;;;;23.40;17.92;;;;;;;;;;5135865;27;20061;-72
2022/10/08 00:14:54;;;;;;;25.67;17.77;;;;;;;;;;5137661;27;20364;-72
2022/10/08 00:17:39;;;;;;;26.60;18.15;;;;;;;;;;5123259;27;20428;-72
2022/10/08 00:20:25;;;;;;;27.67;18.50;;;;;;;;;;5122277;27;20031;-72
2022/10/08 00:23:10;;;;;;;29.15;18.00;;;;;;;;;;5137664;27;20023;-71
2022/10/08 00:25:56;;;;;;;23.08;17.45;;;;;;;;;;5122075;27;20087;-71
2022/10/08 00:28:43;;;;;;;23.25;17.17;;;;;;;;;;5137112;27;20102;-71
2022/10/08 00:31:31;;;;;;;26.95;18.60;;;;;;;;;;5135362;27;20102;-72
2022/10/08 00:34:18;;;;;;;25.08;17.40;;;;;;;;;;5135286;27;20031;-72
2022/10/08 00:37:04;;;;;;;26.58;18.38;;;;;;;;;;5134902;27;20041;-71
2022/10/08 00:39:49;;;;;;;25.83;17.58;;;;;;;;;;5122210;27;20026;-72
2022/10/08 00:42:37;;;;;;;24.30;17.40;;;;;;;;;;5136478;27;20109;-71
2022/10/08 00:45:22;;;;;;;25.63;17.13;;;;;;;;;;5135888;27;20333;-72
2022/10/08 00:48:14;;;;;;;23.33;16.77;;;;;;;;;;5123203;27;20424;-72
2022/10/08 00:51:00;;;;;;;22.70;16.80;;;;;;;;;;5136200;27;20452;-72
2022/10/08 00:53:46;;;;;;;25.48;17.50;;;;;;;;;;5107627;27;20035;-72
2022/10/08 00:56:34;;;;;;;22.80;17.17;;;;;;;;;;5121772;27;20414;-71
2022/10/08 00:59:20;;;;;;;25.40;17.35;;;;;;;;;;5121328;27;20049;-72
2022/10/08 01:02:07;;;;;;;26.73;16.27;;;;;;;;;;5136949;27;20049;-72
2022/10/08 01:04:53;;;;;;;27.48;17.52;;;;;;;;;;5135978;27;20026;-72
2022/10/08 01:07:44;;;;;;;24.00;17.00;;;;;;;;;;5135088;27;20080;-72
2022/10/08 01:10:39;;;;;;;29.52;16.98;;;;;;;;;;5135109;27;20091;-72
2022/10/08 01:13:38;;;;;;;23.80;16.65;;;;;;;;;;5135681;27;20027;-72
2022/10/08 01:16:27;;;;;;;22.38;17.20;;;;;;;;;;5136138;27;20112;-72
2022/10/08 01:19:19;;;;;;;21.30;16.77;;;;;;;;;;5120972;27;20349;-72
2022/10/08 01:22:14;;;;;;;28.55;18.20;;;;;;;;;;5134818;27;20047;-72
2022/10/08 01:25:32;;;;;;;26.38;17.40;;;;;;;;;;5106129;27;20023;-71
2022/10/08 01:28:26;;;;;;;26.17;16.98;;;;;;;;;;5135555;27;20172;-71
2022/10/08 01:31:21;;;;;;;22.33;16.25;;;;;;;;;;5134664;27;20019;-72
2022/10/08 01:34:18;;;;;;;30.40;18.00;;;;;;;;;;5135377;27;20056;-72
2022/10/08 01:37:05;;;;;;;24.65;17.27;;;;;;;;;;5135967;27;20080;-72
2022/10/08 01:39:52;;;;;;;25.83;17.67;;;;;;;;;;5135658;27;20019;-71
2022/10/08 01:42:38;;;;;;;24.83;17.88;;;;;;;;;;5135745;27;20031;-71
2022/10/08 01:45:30;;;;;;;24.77;17.80;;;;;;;;;;5135336;27;20019;-71
2022/10/08 01:48:19;;;;;;;21.38;17.20;;;;;;;;;;5134385;27;20110;-71
2022/10/08 01:51:12;;;;;;;26.50;18.38;;;;;;;;;;5135094;27;20025;-71
2022/10/08 01:54:00;;;;;;;23.25;17.50;;;;;;;;;;5134856;27;20130;-72
2022/10/08 01:56:46;;;;;;;27.42;18.42;;;;;;;;;;5135056;27;20073;-72
2022/10/08 01:59:36;;;;;;;30.58;18.35;;;;;;;;;;5135633;27;20065;-71
2022/10/08 02:02:23;;;;;;;25.63;18.30;;;;;;;;;;5135015;27;20106;-71
2022/10/08 02:05:10;;;;;;;31.20;19.60;;;;;;;;;;5119003;27;20023;-72
2022/10/08 02:07:55;;;;;;;29.25;19.60;;;;;;;;;;5135530;27;20093;-72
2022/10/08 02:10:41;;;;;;;24.90;18.48;;;;;;;;;;5135324;27;20015;-72
2022/10/08 02:13:27;;;;;;;25.45;18.45;;;;;;;;;;5135172;27;20015;-72
2022/10/08 02:16:19;;;;;;;28.85;19.33;;;;;;;;;;5134335;27;20015;-72
2022/10/08 02:19:08;;;;;;;25.88;18.38;;;;;;;;;;5134982;27;20016;-72
2022/10/08 02:21:55;;;;;;;28.35;18.52;;;;;;;;;;5135389;27;20026;-72
2022/10/08 02:24:44;;;;;;;31.73;19.35;;;;;;;;;;5134593;27;20019;-71
2022/10/08 02:27:35;;;;;;;28.95;19.20;;;;;;;;;;5134425;28;20011;-72
2022/10/08 02:30:22;;;;;;;29.35;19.70;;;;;;;;;;5134651;28;20096;-71
2022/10/08 02:33:14;;;;;;;29.52;19.75;;;;;;;;;;5134760;28;20048;-71
2022/10/08 02:36:00;;;;;;;29.60;19.67;;;;;;;;;;5119520;28;20031;-72
2022/10/08 02:38:49;;;;;;;35.53;19.55;;;;;;;;;;5134759;28;20065;-71
2022/10/08 02:41:36;;;;;;;25.52;19.13;;;;;;;;;;5119996;28;20030;-72
2022/10/08 02:44:25;;;;;;;29.58;20.00;;;;;;;;;;5118340;28;20102;-72
2022/10/08 02:47:14;;;;;;;29.63;20.23;;;;;;;;;;5119874;28;20084;-73
2022/10/08 02:50:02;;;;;;;35.75;20.85;;;;;;;;;;5134358;28;20030;-72
2022/10/08 02:52:49;;;;;;;28.15;19.83;;;;;;;;;;5135146;28;20027;-72
2022/10/08 02:55:43;;;;;;;28.88;19.60;;;;;;;;;;5134604;28;20043;-72
2022/10/08 02:58:30;;;;;;;30.85;20.15;;;;;;;;;;5119667;27;20334;-72
2022/10/08 03:01:18;;;;;;;32.10;19.80;;;;;;;;;;5123854;27;20019;-71
2022/10/08 03:04:13;;;;;;;26.80;18.92;;;;;;;;;;5137866;27;20031;-72
2022/10/08 03:06:59;;;;;;;32.67;21.30;;;;;;;;;;5137730;27;20344;-71
2022/10/08 03:09:45;;;;;;;27.88;20.40;;;;;;;;;;5123392;27;20038;-72
2022/10/08 03:12:32;;;;;;;38.03;20.92;;;;;;;;;;5121954;27;20022;-72
2022/10/08 03:15:17;;;;;;;29.58;19.38;;;;;;;;;;5123088;27;20019;-73
2022/10/08 03:18:06;;;;;;;27.05;19.08;;;;;;;;;;5137885;27;20022;-72
2022/10/08 03:20:53;;;;;;;29.65;19.10;;;;;;;;;;5123091;27;20023;-73
2022/10/08 03:23:39;;;;;;;24.13;18.48;;;;;;;;;;5137424;27;20026;-72
2022/10/08 03:26:24;;;;;;;27.67;18.38;;;;;;;;;;5124305;27;20050;-71
2022/10/08 03:29:10;;;;;;;26.25;18.73;;;;;;;;;;5123262;27;20046;-71
2022/10/08 03:31:56;;;;;;;25.92;18.65;;;;;;;;;;5123435;27;20027;-72
2022/10/08 03:34:42;;;;;;;25.40;18.33;;;;;;;;;;5123367;27;20030;-72
2022/10/08 03:37:27;;;;;;;27.08;18.25;;;;;;;;;;5137906;27;20101;-72
2022/10/08 03:40:13;;;;;;;28.45;18.45;;;;;;;;;;5122646;27;20023;-72
2022/10/08 03:42:58;;;;;;;29.88;18.67;;;;;;;;;;5124309;27;20030;-72
2022/10/08 03:45:51;;;;;;;24.55;18.20;;;;;;;;;;5138635;27;20075;-72
2022/10/08 03:48:37;;;;;;;26.92;18.15;;;;;;;;;;5136342;27;20019;-73
2022/10/08 03:51:22;;;;;;;27.92;18.45;;;;;;;;;;5138216;27;20102;-72
2022/10/08 03:54:08;;;;;;;27.13;19.25;;;;;;;;;;5137649;27;20400;-72
2022/10/08 03:56:54;;;;;;;28.88;19.00;;;;;;;;;;5136879;27;20069;-73
2022/10/08 03:59:39;;;;;;;28.00;18.20;;;;;;;;;;5137611;27;20065;-73
2022/10/08 04:02:25;;;;;;;29.30;18.52;;;;;;;;;;5122510;27;20034;-72
2022/10/08 04:05:11;;;;;;;26.67;18.05;;;;;;;;;;5137696;27;20019;-72
2022/10/08 04:07:56;;;;;;;27.00;18.20;;;;;;;;;;5122198;27;20065;-73
2022/10/08 04:10:42;;;;;;;32.28;18.52;;;;;;;;;;5122456;27;20138;-72
2022/10/08 04:13:27;;;;;;;26.48;19.15;;;;;;;;;;5122197;27;20650;-72
2022/10/08 04:16:14;;;;;;;33.88;18.45;;;;;;;;;;5136857;27;20065;-73
2022/10/08 04:19:00;;;;;;;24.75;18.23;;;;;;;;;;5135581;27;20015;-72
2022/10/08 04:21:45;;;;;;;25.88;19.10;;;;;;;;;;5135675;27;20101;-72
2022/10/08 04:24:31;;;;;;;27.10;18.65;;;;;;;;;;5136104;27;20012;-72
2022/10/08 04:27:16;;;;;;;27.77;19.08;;;;;;;;;;5136091;27;20402;-73
2022/10/08 04:30:02;;;;;;;28.92;19.67;;;;;;;;;;5137394;27;20019;-71
2022/10/08 04:32:48;;;;;;;27.67;19.13;;;;;;;;;;5137185;27;20023;-72
2022/10/08 04:35:37;;;;;;;27.95;19.38;;;;;;;;;;5137483;27;20025;-74
2022/10/08 04:38:22;;;;;;;31.17;21.27;;;;;;;;;;5134745;27;20046;-72
2022/10/08 04:41:10;;;;;;;34.05;22.20;;;;;;;;;;5136095;27;20337;-74
2022/10/08 04:43:58;;;;;;;33.10;21.60;;;;;;;;;;5137013;27;20437;-72
2022/10/08 04:46:43;;;;;;;36.63;22.00;;;;;;;;;;5136660;27;20034;-72
2022/10/08 04:49:29;;;;;;;39.50;21.25;;;;;;;;;;5135868;27;20019;-72
2022/10/08 04:52:17;;;;;;;28.05;19.83;;;;;;;;;;5136882;27;20019;-73
2022/10/08 04:55:03;;;;;;;30.85;19.17;;;;;;;;;;5135514;27;20075;-72
2022/10/08 04:57:49;;;;;;;28.15;17.70;;;;;;;;;;5135910;27;20017;-72
2022/10/08 05:00:34;;;;;;;27.25;18.27;;;;;;;;;;5136309;27;20098;-72
2022/10/08 05:03:20;;;;;;;34.40;17.95;;;;;;;;;;5136322;27;20031;-72
2022/10/08 05:06:06;;;;;;;24.55;16.17;;;;;;;;;;5136826;27;20110;-72
2022/10/08 05:08:52;;;;;;;27.05;16.85;;;;;;;;;;5120285;27;20035;-73
2022/10/08 05:11:37;;;;;;;27.85;17.33;;;;;;;;;;5135387;27;20092;-72
2022/10/08 05:14:23;;;;;;;28.02;17.70;;;;;;;;;;5121514;27;20472;-72
2022/10/08 05:17:08;;;;;;;25.23;19.25;;;;;;;;;;5136440;27;20015;-73
2022/10/08 05:19:54;;;;;;;28.42;19.60;;;;;;;;;;5135058;27;20023;-72
2022/10/08 05:22:39;;;;;;;33.00;21.42;;;;;;;;;;5135521;27;20031;-73
2022/10/08 05:25:25;;;;;;;30.35;20.20;;;;;;;;;;5136333;27;20023;-73
2022/10/08 05:28:11;;;;;;;26.33;19.65;;;;;;;;;;5134649;27;20019;-73
2022/10/08 05:31:00;;;;;;;25.90;18.85;;;;;;;;;;5136697;27;20402;-72
2022/10/08 05:33:45;;;;;;;28.27;18.80;;;;;;;;;;5121141;27;20033;-72
2022/10/08 05:36:31;;;;;;;27.13;18.33;;;;;;;;;;5122097;27;20425;-74
2022/10/08 05:39:17;;;;;;;26.05;17.77;;;;;;;;;;5135908;27;20023;-73
2022/10/08 05:42:02;;;;;;;24.42;17.52;;;;;;;;;;5135822;27;20019;-72
2022/10/08 05:44:48;;;;;;;21.48;15.65;;;;;;;;;;5134578;27;20019;-72
2022/10/08 05:47:34;;;;;;;27.70;15.98;;;;;;;;;;5134655;27;20027;-73
2022/10/08 05:50:19;;;;;;;21.30;14.88;;;;;;;;;;5135244;27;20019;-73
2022/10/08 05:53:05;;;;;;;20.60;14.98;;;;;;;;;;5134492;27;20034;-73
2022/10/08 05:55:57;;;;;;;23.80;17.25;;;;;;;;;;5134163;27;20159;-72
2022/10/08 05:58:43;;;;;;;30.90;20.65;;;;;;;;;;5135126;27;20433;-72
2022/10/08 06:01:30;;;;;;;24.20;16.23;;;;;;;;;;5135417;27;20026;-73
2022/10/08 06:04:17;;;;;;;20.27;15.20;;;;;;;;;;5133780;27;20031;-73
2022/10/08 06:07:02;;;;;;;32.00;21.13;;;;;;;;;;5135190;27;20019;-73
2022/10/08 06:09:51;;;;;;;25.17;15.35;;;;;;;;;;5134371;27;20023;-72
2022/10/08 06:12:36;;;;;;;26.10;16.23;;;;;;;;;;5134386;27;20427;-73
2022/10/08 06:15:22;;;;;;;23.00;15.98;;;;;;;;;;5135541;27;20027;-72
2022/10/08 06:18:07;;;;;;;25.70;16.30;;;;;;;;;;5133922;27;20047;-72
2022/10/08 06:20:53;;;;;;;26.83;16.92;;;;;;;;;;5135625;27;20015;-73
2022/10/08 06:23:43;;;;;;;25.70;16.50;;;;;;;;;;5135230;27;20356;-73
2022/10/08 06:26:31;;;;;;;24.65;16.60;;;;;;;;;;5134869;27;20088;-72
2022/10/08 06:29:17;;;;;;;26.42;16.08;;;;;;;;;;5134668;28;20029;-73
2022/10/08 06:32:02;;;;;;;26.83;17.90;;;;;;;;;;5134789;28;20160;-72
2022/10/08 06:34:48;;;;;;;24.92;15.80;;;;;;;;;;5137140;27;20023;-72
2022/10/08 06:37:34;;;;;;;22.73;15.75;;;;;;;;;;5139475;27;20029;-71
2022/10/08 06:40:19;;;;;;;22.75;15.40;;;;;;;;;;5138873;27;20445;-72
2022/10/08 06:43:06;;;;;;;27.65;16.60;;;;;;;;;;5139047;27;20473;-73
2022/10/08 06:45:52;;;;;;;29.55;18.35;;;;;;;;;;5139387;27;20106;-72
2022/10/08 06:48:38;;;;;;;26.75;17.67;;;;;;;;;;5139233;27;20109;-72
2022/10/08 06:51:23;;;;;;;30.05;18.80;;;;;;;;;;5123943;27;20030;-72
2022/10/08 06:54:09;;;;;;;30.55;18.95;;;;;;;;;;5123693;27;20082;-73
2022/10/08 06:56:55;;;;;;;26.20;18.88;;;;;;;;;;5138728;27;20106;-72
2022/10/08 06:59:40;;;;;;;25.30;18.08;;;;;;;;;;5138588;27;20091;-72
2022/10/08 07:02:26;;;;;;;26.00;17.90;;;;;;;;;;5138151;27;20023;-73
2022/10/08 07:05:11;;;;;;;26.00;18.25;;;;;;;;;;5123388;27;20034;-74
2022/10/08 07:07:57;;;;;;;23.17;16.70;;;;;;;;;;5137616;27;20038;-73
2022/10/08 07:10:43;;;;;;;25.05;17.50;;;;;;;;;;5138106;27;20113;-72
2022/10/08 07:13:28;;;;;;;20.55;16.15;;;;;;;;;;5123811;27;20051;-73
2022/10/08 07:16:15;;;;;;;23.08;15.15;;;;;;;;;;5137648;27;20090;-73
2022/10/08 07:19:01;;;;;;;20.45;15.13;;;;;;;;;;5137724;27;20015;-72
2022/10/08 07:21:46;;;;;;;20.48;15.73;;;;;;;;;;5137291;27;20023;-73
2022/10/08 07:24:32;;;;;;;23.02;15.98;;;;;;;;;;5137169;27;20023;-73
2022/10/08 07:27:18;;;;;;;24.10;16.05;;;;;;;;;;5139352;27;20027;-73
2022/10/08 07:30:04;;;;;;;19.33;14.80;;;;;;;;;;5138826;27;20429;-71
2022/10/08 07:32:52;;;;;;;23.17;15.60;;;;;;;;;;5137933;27;20173;-72
2022/10/08 07:35:38;;;;;;;22.52;15.85;;;;;;;;;;5139078;27;20012;-72
2022/10/08 07:38:24;;;;;;;23.67;14.57;;;;;;;;;;5137053;27;20022;-72
2022/10/08 07:41:10;;;;;;;21.55;13.90;;;;;;;;;;5123381;27;20098;-74
2022/10/08 07:43:59;;;;;;;20.73;14.73;;;;;;;;;;5137935;27;20113;-73
2022/10/08 07:46:48;;;;;;;18.17;13.60;;;;;;;;;;5137365;27;20034;-73
2022/10/08 07:49:34;;;;;;;21.17;14.73;;;;;;;;;;5137839;27;20019;-72
2022/10/08 07:52:20;;;;;;;20.35;14.30;;;;;;;;;;5136809;27;20019;-73
2022/10/08 07:55:08;;;;;;;19.13;14.00;;;;;;;;;;5137946;27;20054;-73
2022/10/08 07:57:54;;;;;;;18.85;13.73;;;;;;;;;;5136634;27;20048;-73
2022/10/08 08:00:39;;;;;;;21.42;13.88;;;;;;;;;;5123145;27;20172;-72
2022/10/08 08:03:25;;;;;;;19.88;14.05;;;;;;;;;;5123783;27;20452;-73
2022/10/08 08:06:12;;;;;;;19.42;13.55;;;;;;;;;;5137758;27;20349;-72
2022/10/08 08:08:59;;;;;;;22.73;13.63;;;;;;;;;;5137738;27;20026;-73
2022/10/08 08:11:45;;;;;;;19.05;13.05;;;;;;;;;;5136928;27;20093;-74
2022/10/08 08:14:31;;;;;;;20.30;13.20;;;;;;;;;;5136785;27;20106;-74
2022/10/08 08:17:17;;;;;;;20.02;12.70;;;;;;;;;;5137153;27;20030;-74
2022/10/08 08:20:02;;;;;;;18.00;12.80;;;;;;;;;;5138168;27;20414;-73
2022/10/08 08:22:48;;;;;;;19.65;13.43;;;;;;;;;;5121985;27;20414;-73
2022/10/08 08:25:34;;;;;;;20.42;13.18;;;;;;;;;;5137380;27;20092;-73
2022/10/08 08:28:20;;;;;;;23.05;14.00;;;;;;;;;;5137125;27;20065;-73
2022/10/08 08:31:16;;;;;;;22.20;14.02;;;;;;;;;;5137565;27;20030;-72
2022/10/08 08:34:04;;;;;;;21.30;13.70;;;;;;;;;;5137162;27;20023;-73
2022/10/08 08:36:52;;;;;;;25.65;14.15;;;;;;;;;;5137309;27;20352;-73
2022/10/08 08:39:38;;;;;;;20.05;13.82;;;;;;;;;;5122214;27;20035;-74
2022/10/08 08:42:42;;;;;;;23.80;14.13;;;;;;;;;;5135915;27;20012;-72
2022/10/08 08:45:29;;;;;;;24.73;13.88;;;;;;;;;;5136029;27;20046;-72
2022/10/08 08:48:16;;;;;;;26.00;14.98;;;;;;;;;;5135506;27;20019;-74
2022/10/08 08:51:03;;;;;;;23.95;15.15;;;;;;;;;;5136087;27;20049;-74
2022/10/08 08:53:48;;;;;;;22.30;14.30;;;;;;;;;;5136287;27;20039;-72
2022/10/08 08:56:34;;;;;;;25.88;14.57;;;;;;;;;;5134276;27;20072;-72
2022/10/08 08:59:25;;;;;;;23.83;14.30;;;;;;;;;;5137373;27;20019;-73
2022/10/08 09:02:37;;;;;;;24.52;13.40;;;;;;;;;;5136106;27;20440;-73
2022/10/08 09:05:23;;;;;;;21.98;13.35;;;;;;;;;;5136485;27;20031;-72
2022/10/08 09:08:16;;;;;;;17.63;12.35;;;;;;;;;;5121287;27;20019;-72
2022/10/08 09:11:02;;;;;;;16.95;11.85;;;;;;;;;;5136157;27;20518;-73
2022/10/08 09:13:54;;;;;;;16.63;12.93;;;;;;;;;;5136084;27;20023;-71
2022/10/08 09:16:40;;;;;;;17.55;12.23;;;;;;;;;;5120772;27;20452;-71
2022/10/08 09:19:25;;;;;;;14.95;11.10;;;;;;;;;;5135066;27;20041;-72
2022/10/08 09:22:22;;;;;;;16.67;11.15;;;;;;;;;;5121269;27;20026;-71
2022/10/08 09:25:16;;;;;;;17.40;12.23;;;;;;;;;;5135522;27;20084;-70
2022/10/08 09:28:04;;;;;;;17.23;12.00;;;;;;;;;;5136493;27;20514;-70
2022/10/08 09:30:50;;;;;;;15.50;11.52;;;;;;;;;;5135083;27;20359;-71
2022/10/08 09:33:37;;;;;;;18.90;11.13;;;;;;;;;;5136209;27;20026;-70
2022/10/08 09:36:36;;;;;;;15.88;11.00;;;;;;;;;;5135620;27;20023;-70
2022/10/08 09:39:23;;;;;;;19.40;11.50;;;;;;;;;;5134121;27;20020;-70
2022/10/08 09:42:13;;;;;;;11.32;9.20;;;;;;;;;;5136492;27;20023;-70
2022/10/08 09:45:02;;;;;;;16.58;11.55;;;;;;;;;;5135026;27;20055;-70
2022/10/08 09:48:08;;;;;;;12.68;10.25;;;;;;;;;;5134992;27;20412;-71
2022/10/08 09:51:02;;;;;;;13.73;9.32;;;;;;;;;;5135787;27;20116;-72
2022/10/08 09:53:53;;;;;;;22.13;15.25;;;;;;;;;;5120690;27;20039;-73
2022/10/08 09:56:39;;;;;;;14.52;11.02;;;;;;;;;;5136438;27;20099;-72
2022/10/08 09:59:26;;;;;;;19.23;10.50;;;;;;;;;;5136367;27;20444;-72
2022/10/08 10:02:25;;;;;;;14.60;10.70;;;;;;;;;;5134940;27;20027;-73
2022/10/08 10:05:22;;;;;;;14.70;9.85;;;;;;;;;;5119404;27;20034;-73
2022/10/08 10:08:27;;;;;;;15.80;9.77;;;;;;;;;;5136172;27;20429;-73
2022/10/08 10:11:18;;;;;;;15.85;10.85;;;;;;;;;;5135777;27;20460;-74
2022/10/08 10:14:06;;;;;;;21.13;11.48;;;;;;;;;;5135230;27;20029;-73
2022/10/08 10:16:56;;;;;;;14.07;10.20;;;;;;;;;;5134912;27;20015;-72
2022/10/08 10:19:50;;;;;;;14.23;9.05;;;;;;;;;;5136445;27;20034;-72
2022/10/08 10:22:46;;;;;;;13.73;10.25;;;;;;;;;;5136390;27;20436;-74
2022/10/08 10:25:37;;;;;;;18.17;10.45;;;;;;;;;;5135226;27;20080;-72
2022/10/08 10:28:41;;;;;;;13.27;9.40;;;;;;;;;;5120498;28;20453;-73
2022/10/08 10:31:31;;;;;;;13.18;8.88;;;;;;;;;;5135709;28;20062;-73
2022/10/08 10:34:22;;;;;;;11.93;8.40;;;;;;;;;;5135272;28;20023;-71
2022/10/08 10:37:14;;;;;;;10.18;7.55;;;;;;;;;;5135380;28;20449;-73
2022/10/08 10:40:26;;;;;;;12.70;8.35;;;;;;;;;;5135419;28;20105;-73
2022/10/08 10:43:31;;;;;;;17.58;8.90;;;;;;;;;;5110010;28;20050;-72
2022/10/08 10:46:25;;;;;;;11.98;8.38;;;;;;;;;;5120241;28;20037;-72
2022/10/08 10:49:16;;;;;;;14.98;7.47;;;;;;;;;;5134023;28;20027;-72
2022/10/08 10:52:04;;;;;;;8.98;7.28;;;;;;;;;;5134630;28;20467;-74
2022/10/08 10:55:02;;;;;;;13.32;7.50;;;;;;;;;;5134280;27;20401;-72
2022/10/08 10:58:03;;;;;;;10.18;6.88;;;;;;;;;;5134010;28;20015;-73
2022/10/08 11:01:07;;;;;;;9.57;7.43;;;;;;;;;;5134321;28;20112;-72
2022/10/08 11:03:59;;;;;;;9.63;7.72;;;;;;;;;;5134407;28;20035;-72
2022/10/08 11:06:52;;;;;;;8.95;7.22;;;;;;;;;;5135790;28;20023;-73
2022/10/08 11:09:43;;;;;;;11.75;7.15;;;;;;;;;;5135756;28;20027;-72
2022/10/08 11:12:31;;;;;;;13.68;8.13;;;;;;;;;;5135052;28;20104;-71
2022/10/08 11:15:17;;;;;;;11.10;7.43;;;;;;;;;;5133802;28;20023;-72
2022/10/08 11:18:06;;;;;;;10.45;7.93;;;;;;;;;;5133962;28;20016;-74
2022/10/08 11:21:08;;;;;;;11.45;7.20;;;;;;;;;;5123357;27;20011;-72
2022/10/08 11:24:09;;;;;;;9.45;7.28;;;;;;;;;;5139205;27;20019;-72
2022/10/08 11:26:58;;;;;;;11.40;8.10;;;;;;;;;;5138118;27;20023;-70
2022/10/08 11:29:49;;;;;;;12.07;8.00;;;;;;;;;;5123918;27;20015;-72
2022/10/08 11:32:38;;;;;;;9.68;8.15;;;;;;;;;;5137567;27;20334;-72
2022/10/08 11:35:24;;;;;;;12.40;8.65;;;;;;;;;;5138179;27;20496;-73
2022/10/08 11:38:39;;;;;;;11.55;8.40;;;;;;;;;;5124192;27;20109;-73
2022/10/08 11:41:30;;;;;;;10.85;7.93;;;;;;;;;;5130105;27;20019;-73
2022/10/08 11:44:16;;;;;;;12.93;8.23;;;;;;;;;;5123580;27;20068;-73
2022/10/08 11:47:20;;;;;;;9.82;7.70;;;;;;;;;;5139207;27;20357;-71
2022/10/08 11:50:25;;;;;;;12.95;8.27;;;;;;;;;;5138059;27;20034;-71
2022/10/08 11:53:12;;;;;;;11.73;7.55;;;;;;;;;;5137563;27;20027;-73
2022/10/08 11:55:58;;;;;;;12.18;7.57;;;;;;;;;;5137846;27;20102;-74
2022/10/08 11:58:52;;;;;;;9.85;7.32;;;;;;;;;;5125038;27;20337;-72
2022/10/08 12:01:55;;;;;;;13.18;6.80;;;;;;;;;;5138806;27;20043;-74
2022/10/08 12:04:41;;;;;;;7.68;6.88;;;;;;;;;;5138293;27;20019;-73
2022/10/08 12:07:35;;;;;;;15.13;7.40;;;;;;;;;;5123098;27;20065;-73
2022/10/08 12:10:28;;;;;;;10.98;7.43;;;;;;;;;;5136548;27;20122;-70
2022/10/08 12:13:14;;;;;;;12.00;7.50;;;;;;;;;;5137952;27;20026;-71
2022/10/08 12:16:03;;;;;;;11.50;7.63;;;;;;;;;;5137365;27;20023;-71
2022/10/08 12:18:49;;;;;;;11.20;7.47;;;;;;;;;;5137825;27;20333;-72
2022/10/08 12:21:45;;;;;;;9.07;6.85;;;;;;;;;;5123592;27;20338;-71
2022/10/08 12:24:37;;;;;;;10.15;7.43;;;;;;;;;;5136483;27;20054;-73
2022/10/08 12:27:27;;;;;;;14.48;7.65;;;;;;;;;;5136993;27;20027;-72
2022/10/08 12:30:16;;;;;;;9.40;7.25;;;;;;;;;;5138359;27;20463;-71
2022/10/08 12:33:02;;;;;;;9.98;6.85;;;;;;;;;;5138367;27;20038;-72
2022/10/08 12:35:54;;;;;;;10.30;7.20;;;;;;;;;;5137843;27;20023;-71
2022/10/08 12:38:59;;;;;;;11.75;7.22;;;;;;;;;;5137928;27;20079;-71
2022/10/08 12:41:50;;;;;;;8.63;6.78;;;;;;;;;;5137353;27;20459;-72
2022/10/08 12:44:39;;;;;;;11.75;6.60;;;;;;;;;;5137987;27;20494;-70
2022/10/08 12:47:25;;;;;;;11.20;6.80;;;;;;;;;;5137570;27;20023;-71
2022/10/08 12:50:31;;;;;;;10.57;6.80;;;;;;;;;;5122391;27;20453;-70
2022/10/08 12:53:17;;;;;;;8.95;6.50;;;;;;;;;;5137093;27;20030;-71
2022/10/08 12:56:03;;;;;;;9.63;6.35;;;;;;;;;;5120571;27;20096;-70
2022/10/08 12:58:49;;;;;;;8.73;5.72;;;;;;;;;;5136824;27;20076;-70
2022/10/08 13:01:35;;;;;;;12.55;6.20;;;;;;;;;;5121409;27;20023;-71
2022/10/08 13:04:20;;;;;;;8.45;5.97;;;;;;;;;;5136377;27;20311;-70
2022/10/08 13:07:17;;;;;;;11.07;5.90;;;;;;;;;;5136579;27;20445;-71
2022/10/08 13:10:16;;;;;;;6.45;5.50;;;;;;;;;;5121617;27;20051;-71
2022/10/08 13:13:02;;;;;;;9.95;6.00;;;;;;;;;;5134282;27;20052;-70
2022/10/08 13:15:56;;;;;;;9.10;5.90;;;;;;;;;;5135744;27;20023;-70
2022/10/08 13:18:44;;;;;;;10.00;5.85;;;;;;;;;;5135632;27;20076;-70
2022/10/08 13:21:29;;;;;;;8.05;5.70;;;;;;;;;;5135666;27;20019;-69
2022/10/08 13:24:15;;;;;;;8.82;5.43;;;;;;;;;;5136130;27;20079;-69
2022/10/08 13:27:00;;;;;;;8.13;5.47;;;;;;;;;;5135627;27;20406;-69
2022/10/08 13:29:46;;;;;;;6.78;5.28;;;;;;;;;;5135452;27;20106;-70
2022/10/08 13:32:34;;;;;;;8.95;6.10;;;;;;;;;;5135257;27;20019;-70
2022/10/08 13:35:23;;;;;;;9.77;6.30;;;;;;;;;;5135525;27;20049;-70
2022/10/08 13:38:15;;;;;;;9.98;5.82;;;;;;;;;;5136130;27;20083;-71
2022/10/08 13:41:04;;;;;;;9.05;6.35;;;;;;;;;;5119639;27;20099;-70
2022/10/08 13:43:50;;;;;;;9.20;5.85;;;;;;;;;;5136019;27;20075;-69
2022/10/08 13:46:36;;;;;;;9.30;6.10;;;;;;;;;;5135534;27;20019;-69
2022/10/08 13:49:22;;;;;;;8.55;5.70;;;;;;;;;;5134965;27;20325;-69
2022/10/08 13:52:15;;;;;;;7.32;5.40;;;;;;;;;;5135657;27;20031;-69
2022/10/08 13:55:02;;;;;;;7.40;5.13;;;;;;;;;;5134575;27;20047;-70
2022/10/08 13:57:48;;;;;;;8.38;5.30;;;;;;;;;;5135347;27;20113;-70
2022/10/08 14:00:34;;;;;;;6.20;5.20;;;;;;;;;;5119944;27;20027;-70
2022/10/08 14:03:20;;;;;;;10.18;5.50;;;;;;;;;;5135372;27;20034;-70
2022/10/08 14:06:06;;;;;;;6.45;5.32;;;;;;;;;;5134054;27;20019;-69
2022/10/08 14:08:51;;;;;;;9.38;5.72;;;;;;;;;;5135173;27;20436;-69
2022/10/08 14:11:40;;;;;;;6.90;5.47;;;;;;;;;;5135012;27;20023;-70
2022/10/08 14:14:26;;;;;;;7.63;5.47;;;;;;;;;;5133849;27;20113;-71
2022/10/08 14:17:11;;;;;;;8.85;5.90;;;;;;;;;;5134939;27;20451;-73
2022/10/08 14:19:57;;;;;;;11.10;5.72;;;;;;;;;;5135438;27;20023;-71
2022/10/08 14:22:42;;;;;;;7.93;5.57;;;;;;;;;;5120968;28;20179;-70
2022/10/08 14:25:29;;;;;;;11.27;6.22;;;;;;;;;;5134829;27;20410;-70
2022/10/08 14:28:15;;;;;;;8.68;6.20;;;;;;;;;;5135637;27;20019;-71
2022/10/08 14:31:01;;;;;;;10.18;5.80;;;;;;;;;;5134880;28;20051;-70
2022/10/08 14:33:46;;;;;;;9.00;5.95;;;;;;;;;;5134258;28;20054;-71
2022/10/08 14:36:34;;;;;;;8.95;5.88;;;;;;;;;;5135192;28;20019;-69
2022/10/08 14:39:19;;;;;;;9.60;5.78;;;;;;;;;;5134670;28;20445;-71
2022/10/08 14:42:05;;;;;;;9.27;6.00;;;;;;;;;;5134499;28;20028;-70
2022/10/08 14:44:52;;;;;;;8.63;5.55;;;;;;;;;;5119703;28;20019;-71
2022/10/08 14:47:37;;;;;;;9.07;5.88;;;;;;;;;;5134398;28;20030;-71
2022/10/08 14:50:23;;;;;;;7.78;5.60;;;;;;;;;;5134933;28;20096;-72
2022/10/08 14:53:08;;;;;;;9.98;5.72;;;;;;;;;;5120140;27;20015;-73
2022/10/08 14:55:55;;;;;;;8.65;5.95;;;;;;;;;;5138247;27;20518;-72
2022/10/08 14:58:41;;;;;;;9.07;6.35;;;;;;;;;;5138702;27;20119;-73
2022/10/08 15:01:27;;;;;;;10.82;5.72;;;;;;;;;;5124459;27;20026;-72
2022/10/08 15:04:13;;;;;;;10.95;6.32;;;;;;;;;;5138032;27;20455;-72
2022/10/08 15:06:59;;;;;;;7.00;5.82;;;;;;;;;;5138717;27;20453;-72
2022/10/08 15:09:45;;;;;;;10.65;6.50;;;;;;;;;;5138089;27;20054;-73
2022/10/08 15:12:30;;;;;;;8.88;6.22;;;;;;;;;;5137703;27;20030;-73
2022/10/08 15:15:18;;;;;;;12.50;7.03;;;;;;;;;;5138470;27;20023;-73
2022/10/08 15:18:04;;;;;;;12.00;6.45;;;;;;;;;;5123616;27;20348;-74
2022/10/08 15:20:55;;;;;;;12.27;6.60;;;;;;;;;;5124273;27;20019;-72
2022/10/08 15:23:41;;;;;;;10.88;6.35;;;;;;;;;;5138597;27;20345;-73
2022/10/08 15:26:26;;;;;;;9.98;6.70;;;;;;;;;;5139233;27;20024;-73
2022/10/08 15:29:12;;;;;;;11.52;7.45;;;;;;;;;;5137985;27;20015;-73
2022/10/08 15:31:58;;;;;;;13.18;7.55;;;;;;;;;;5138708;27;20023;-72
2022/10/08 15:34:43;;;;;;;14.77;8.68;;;;;;;;;;5137064;27;20019;-72
2022/10/08 15:37:29;;;;;;;13.00;7.95;;;;;;;;;;5138171;27;20015;-73
2022/10/08 15:40:14;;;;;;;17.27;10.05;;;;;;;;;;5136916;27;20015;-73
2022/10/08 15:43:00;;;;;;;16.90;8.80;;;;;;;;;;5137017;27;20016;-72
2022/10/08 15:45:45;;;;;;;16.23;9.32;;;;;;;;;;5137761;27;20019;-73
2022/10/08 15:48:31;;;;;;;22.60;11.43;;;;;;;;;;5138535;27;20038;-72
2022/10/08 15:51:17;;;;;;;22.55;11.63;;;;;;;;;;5137213;27;20019;-73
2022/10/08 15:54:02;;;;;;;28.48;12.25;;;;;;;;;;5136952;27;20042;-72
2022/10/08 15:56:48;;;;;;;28.42;11.50;;;;;;;;;;5137817;27;20023;-72
2022/10/08 15:59:33;;;;;;;28.65;12.02;;;;;;;;;;5137963;27;20011;-73
2022/10/08 16:02:19;;;;;;;28.52;11.82;;;;;;;;;;5122721;27;20023;-72
2022/10/08 16:05:05;;;;;;;25.95;12.07;;;;;;;;;;5136762;27;20032;-72
2022/10/08 16:07:50;;;;;;;23.73;11.65;;;;;;;;;;5136982;27;20053;-72
2022/10/08 16:10:36;;;;;;;32.47;13.15;;;;;;;;;;5136478;27;20019;-72
2022/10/08 16:13:21;;;;;;;35.47;13.55;;;;;;;;;;5137368;27;20027;-72
2022/10/08 16:16:08;;;;;;;32.38;12.90;;;;;;;;;;5122162;27;20023;-72
2022/10/08 16:18:54;;;;;;;31.08;13.77;;;;;;;;;;5137578;27;20142;-71
2022/10/08 16:21:40;;;;;;;28.85;13.15;;;;;;;;;;5137098;27;20069;-72
2022/10/08 16:24:26;;;;;;;31.40;13.70;;;;;;;;;;5136406;27;20376;-73
2022/10/08 16:27:12;;;;;;;31.65;12.70;;;;;;;;;;5137531;27;20122;-72